METAR Data

Data at: 1306 UTC 24 May 2022

METAR for:KWVL (Waterville/Lafleur A, ME, US)
Text:KWVL 241256Z AUTO 04008KT 10SM CLR 12/02 A3037 RMK AO2 SLP313 T01170017
Temperature: 11.7°C ( 53°F)
Dewpoint: 1.7°C ( 35°F) [RH = 50%]
Pressure (altimeter):30.37 inches Hg (1028.5 mb) [Sea level pressure: 1031.3 mb]
Winds:from the NE (40 degrees) at 9 MPH (8 knots; 4.1 m/s)
Visibility:10 or more sm (16+ km)
Ceiling:at least 12,000 feet AGL
Clouds:sky clear below 12,000 feet AGL
QC Flag:automated observation with no human augmentation